sensor_id;sensor_type;location;lat;lon;timestamp;P1;durP1;ratioP1;P2;durP2;ratioP2
72060;SDS011;59925;52.136;5.420;2023-08-20T00:00:57;8.43;;;4.13;;
72060;SDS011;59925;52.136;5.420;2023-08-20T00:03:24;6.47;;;3.70;;
72060;SDS011;59925;52.136;5.420;2023-08-20T00:05:51;8.65;;;4.22;;
72060;SDS011;59925;52.136;5.420;2023-08-20T00:08:18;9.68;;;4.15;;
72060;SDS011;59925;52.136;5.420;2023-08-20T00:10:44;6.22;;;3.80;;
72060;SDS011;59925;52.136;5.420;2023-08-20T00:13:11;6.20;;;3.95;;
72060;SDS011;59925;52.136;5.420;2023-08-20T00:15:37;8.27;;;3.77;;
72060;SDS011;59925;52.136;5.420;2023-08-20T00:18:04;8.00;;;4.25;;
72060;SDS011;59925;52.136;5.420;2023-08-20T00:20:31;7.35;;;4.13;;
72060;SDS011;59925;52.136;5.420;2023-08-20T00:22:59;7.50;;;4.28;;
72060;SDS011;59925;52.136;5.420;2023-08-20T00:25:26;7.20;;;3.80;;
72060;SDS011;59925;52.136;5.420;2023-08-20T00:27:53;7.63;;;3.67;;
72060;SDS011;59925;52.136;5.420;2023-08-20T00:30:19;7.65;;;3.75;;
72060;SDS011;59925;52.136;5.420;2023-08-20T00:32:46;7.43;;;3.83;;
72060;SDS011;59925;52.136;5.420;2023-08-20T00:35:12;9.75;;;3.88;;
72060;SDS011;59925;52.136;5.420;2023-08-20T00:37:39;8.90;;;4.70;;
72060;SDS011;59925;52.136;5.420;2023-08-20T00:40:05;9.60;;;4.83;;
72060;SDS011;59925;52.136;5.420;2023-08-20T00:42:32;7.05;;;4.25;;
72060;SDS011;59925;52.136;5.420;2023-08-20T00:44:59;9.00;;;4.80;;
72060;SDS011;59925;52.136;5.420;2023-08-20T00:47:25;8.63;;;4.85;;
72060;SDS011;59925;52.136;5.420;2023-08-20T00:49:54;6.47;;;3.90;;
72060;SDS011;59925;52.136;5.420;2023-08-20T00:52:20;7.83;;;4.17;;
72060;SDS011;59925;52.136;5.420;2023-08-20T00:54:50;8.25;;;3.78;;
72060;SDS011;59925;52.136;5.420;2023-08-20T00:57:17;6.13;;;3.40;;
72060;SDS011;59925;52.136;5.420;2023-08-20T00:59:47;8.07;;;3.70;;
72060;SDS011;59925;52.136;5.420;2023-08-20T01:02:17;6.93;;;3.67;;
72060;SDS011;59925;52.136;5.420;2023-08-20T01:04:45;7.80;;;3.60;;
72060;SDS011;59925;52.136;5.420;2023-08-20T01:10:39;7.68;;;3.28;;
72060;SDS011;59925;52.136;5.420;2023-08-20T01:12:56;6.78;;;3.53;;
72060;SDS011;59925;52.136;5.420;2023-08-20T01:15:23;8.18;;;3.17;;
72060;SDS011;59925;52.136;5.420;2023-08-20T01:17:51;7.13;;;3.47;;
72060;SDS011;59925;52.136;5.420;2023-08-20T01:20:17;6.20;;;3.10;;
72060;SDS011;59925;52.136;5.420;2023-08-20T01:22:49;5.82;;;2.95;;
72060;SDS011;59925;52.136;5.420;2023-08-20T01:28:30;5.30;;;3.15;;
72060;SDS011;59925;52.136;5.420;2023-08-20T01:30:58;5.13;;;3.20;;
72060;SDS011;59925;52.136;5.420;2023-08-20T01:33:27;7.97;;;3.47;;
72060;SDS011;59925;52.136;5.420;2023-08-20T01:35:54;6.95;;;2.90;;
72060;SDS011;59925;52.136;5.420;2023-08-20T01:38:21;5.13;;;2.90;;
72060;SDS011;59925;52.136;5.420;2023-08-20T01:40:48;6.68;;;2.85;;
72060;SDS011;59925;52.136;5.420;2023-08-20T01:43:15;6.10;;;2.83;;
72060;SDS011;59925;52.136;5.420;2023-08-20T01:45:42;6.93;;;2.88;;
72060;SDS011;59925;52.136;5.420;2023-08-20T01:48:08;5.25;;;2.80;;
72060;SDS011;59925;52.136;5.420;2023-08-20T01:50:35;7.55;;;2.95;;
72060;SDS011;59925;52.136;5.420;2023-08-20T01:53:02;4.63;;;2.90;;
72060;SDS011;59925;52.136;5.420;2023-08-20T01:55:29;5.27;;;2.77;;
72060;SDS011;59925;52.136;5.420;2023-08-20T01:57:58;9.38;;;3.03;;
72060;SDS011;59925;52.136;5.420;2023-08-20T02:00:24;7.60;;;3.42;;
72060;SDS011;59925;52.136;5.420;2023-08-20T02:02:51;5.72;;;2.90;;
72060;SDS011;59925;52.136;5.420;2023-08-20T02:05:19;5.43;;;3.05;;
72060;SDS011;59925;52.136;5.420;2023-08-20T02:07:45;7.03;;;3.10;;
72060;SDS011;59925;52.136;5.420;2023-08-20T02:10:12;7.40;;;2.90;;
72060;SDS011;59925;52.136;5.420;2023-08-20T02:12:39;7.38;;;3.20;;
72060;SDS011;59925;52.136;5.420;2023-08-20T02:15:05;6.20;;;3.13;;
72060;SDS011;59925;52.136;5.420;2023-08-20T02:17:33;6.65;;;3.08;;
72060;SDS011;59925;52.136;5.420;2023-08-20T02:20:02;5.10;;;2.90;;
72060;SDS011;59925;52.136;5.420;2023-08-20T02:22:30;4.90;;;3.10;;
72060;SDS011;59925;52.136;5.420;2023-08-20T02:24:57;5.93;;;3.00;;
72060;SDS011;59925;52.136;5.420;2023-08-20T02:27:23;6.90;;;3.22;;
72060;SDS011;59925;52.136;5.420;2023-08-20T02:29:50;5.93;;;3.22;;
72060;SDS011;59925;52.136;5.420;2023-08-20T02:32:17;4.37;;;2.60;;
72060;SDS011;59925;52.136;5.420;2023-08-20T02:34:44;8.63;;;3.67;;
72060;SDS011;59925;52.136;5.420;2023-08-20T02:37:15;5.85;;;3.08;;
72060;SDS011;59925;52.136;5.420;2023-08-20T02:39:41;8.02;;;3.72;;
72060;SDS011;59925;52.136;5.420;2023-08-20T02:42:08;8.60;;;4.25;;
72060;SDS011;59925;52.136;5.420;2023-08-20T02:44:34;6.30;;;4.47;;
72060;SDS011;59925;52.136;5.420;2023-08-20T02:47:01;11.05;;;4.53;;
72060;SDS011;59925;52.136;5.420;2023-08-20T02:49:28;7.95;;;4.22;;
72060;SDS011;59925;52.136;5.420;2023-08-20T02:51:54;8.98;;;4.10;;
72060;SDS011;59925;52.136;5.420;2023-08-20T02:54:20;10.25;;;4.20;;
72060;SDS011;59925;52.136;5.420;2023-08-20T02:56:47;8.97;;;4.00;;
72060;SDS011;59925;52.136;5.420;2023-08-20T02:59:14;7.95;;;4.97;;
72060;SDS011;59925;52.136;5.420;2023-08-20T03:01:40;8.20;;;4.10;;
72060;SDS011;59925;52.136;5.420;2023-08-20T03:04:07;4.85;;;3.85;;
72060;SDS011;59925;52.136;5.420;2023-08-20T03:06:33;5.68;;;3.25;;
72060;SDS011;59925;52.136;5.420;2023-08-20T03:09:00;7.23;;;4.73;;
72060;SDS011;59925;52.136;5.420;2023-08-20T03:11:26;5.53;;;3.53;;
72060;SDS011;59925;52.136;5.420;2023-08-20T03:13:53;5.35;;;3.80;;
72060;SDS011;59925;52.136;5.420;2023-08-20T03:16:19;6.07;;;3.17;;
72060;SDS011;59925;52.136;5.420;2023-08-20T03:18:46;5.85;;;3.40;;
72060;SDS011;59925;52.136;5.420;2023-08-20T03:21:12;7.90;;;3.20;;
72060;SDS011;59925;52.136;5.420;2023-08-20T03:23:39;4.90;;;3.35;;
72060;SDS011;59925;52.136;5.420;2023-08-20T03:26:05;5.80;;;3.28;;
72060;SDS011;59925;52.136;5.420;2023-08-20T03:28:32;7.38;;;3.80;;
72060;SDS011;59925;52.136;5.420;2023-08-20T03:30:59;6.35;;;3.88;;
72060;SDS011;59925;52.136;5.420;2023-08-20T03:33:27;9.60;;;4.40;;
72060;SDS011;59925;52.136;5.420;2023-08-20T03:35:54;7.82;;;4.07;;
72060;SDS011;59925;52.136;5.420;2023-08-20T03:38:24;7.88;;;4.30;;
72060;SDS011;59925;52.136;5.420;2023-08-20T03:40:51;5.60;;;3.60;;
72060;SDS011;59925;52.136;5.420;2023-08-20T03:43:17;6.72;;;3.50;;
72060;SDS011;59925;52.136;5.420;2023-08-20T03:45:44;6.17;;;4.10;;
72060;SDS011;59925;52.136;5.420;2023-08-20T03:48:11;6.50;;;3.80;;
72060;SDS011;59925;52.136;5.420;2023-08-20T03:50:37;9.20;;;3.60;;
72060;SDS011;59925;52.136;5.420;2023-08-20T03:53:04;7.15;;;4.03;;
72060;SDS011;59925;52.136;5.420;2023-08-20T03:55:30;6.28;;;4.07;;
72060;SDS011;59925;52.136;5.420;2023-08-20T03:57:57;6.23;;;3.27;;
72060;SDS011;59925;52.136;5.420;2023-08-20T04:00:23;7.72;;;3.22;;
72060;SDS011;59925;52.136;5.420;2023-08-20T04:02:50;7.35;;;2.90;;
72060;SDS011;59925;52.136;5.420;2023-08-20T04:05:16;4.35;;;3.00;;
72060;SDS011;59925;52.136;5.420;2023-08-20T04:07:43;7.35;;;3.75;;
72060;SDS011;59925;52.136;5.420;2023-08-20T04:10:09;7.63;;;3.20;;
72060;SDS011;59925;52.136;5.420;2023-08-20T04:12:36;8.55;;;3.60;;
72060;SDS011;59925;52.136;5.420;2023-08-20T04:15:02;7.72;;;3.20;;
72060;SDS011;59925;52.136;5.420;2023-08-20T04:17:29;5.50;;;3.28;;
72060;SDS011;59925;52.136;5.420;2023-08-20T04:19:56;7.68;;;3.00;;
72060;SDS011;59925;52.136;5.420;2023-08-20T04:22:22;3.90;;;2.90;;
72060;SDS011;59925;52.136;5.420;2023-08-20T04:24:49;6.88;;;3.53;;
72060;SDS011;59925;52.136;5.420;2023-08-20T04:27:15;4.45;;;2.63;;
72060;SDS011;59925;52.136;5.420;2023-08-20T04:29:42;5.05;;;2.97;;
72060;SDS011;59925;52.136;5.420;2023-08-20T04:32:08;4.57;;;2.80;;
72060;SDS011;59925;52.136;5.420;2023-08-20T04:34:35;6.77;;;2.90;;
72060;SDS011;59925;52.136;5.420;2023-08-20T04:37:01;7.85;;;2.83;;
72060;SDS011;59925;52.136;5.420;2023-08-20T04:39:28;5.45;;;3.22;;
72060;SDS011;59925;52.136;5.420;2023-08-20T04:41:54;5.80;;;3.00;;
72060;SDS011;59925;52.136;5.420;2023-08-20T04:44:23;6.70;;;2.95;;
72060;SDS011;59925;52.136;5.420;2023-08-20T04:46:50;7.00;;;3.17;;
72060;SDS011;59925;52.136;5.420;2023-08-20T04:49:17;5.13;;;3.08;;
72060;SDS011;59925;52.136;5.420;2023-08-20T04:51:43;8.00;;;3.20;;
72060;SDS011;59925;52.136;5.420;2023-08-20T04:54:10;7.00;;;3.15;;
72060;SDS011;59925;52.136;5.420;2023-08-20T04:56:36;6.70;;;3.15;;
72060;SDS011;59925;52.136;5.420;2023-08-20T04:59:02;5.40;;;2.80;;
72060;SDS011;59925;52.136;5.420;2023-08-20T05:01:29;4.07;;;2.70;;
72060;SDS011;59925;52.136;5.420;2023-08-20T05:03:55;6.53;;;3.15;;
72060;SDS011;59925;52.136;5.420;2023-08-20T05:06:22;3.80;;;2.40;;
72060;SDS011;59925;52.136;5.420;2023-08-20T05:08:49;5.32;;;2.60;;
72060;SDS011;59925;52.136;5.420;2023-08-20T05:11:15;8.60;;;2.70;;
72060;SDS011;59925;52.136;5.420;2023-08-20T05:13:43;4.53;;;2.63;;
72060;SDS011;59925;52.136;5.420;2023-08-20T05:16:11;6.43;;;3.30;;
72060;SDS011;59925;52.136;5.420;2023-08-20T05:18:38;7.13;;;3.20;;
72060;SDS011;59925;52.136;5.420;2023-08-20T05:21:04;9.27;;;4.05;;
72060;SDS011;59925;52.136;5.420;2023-08-20T05:23:31;5.27;;;3.37;;
72060;SDS011;59925;52.136;5.420;2023-08-20T05:25:57;5.50;;;3.17;;
72060;SDS011;59925;52.136;5.420;2023-08-20T05:28:24;8.75;;;3.60;;
72060;SDS011;59925;52.136;5.420;2023-08-20T05:30:56;7.25;;;2.97;;
72060;SDS011;59925;52.136;5.420;2023-08-20T05:33:23;7.15;;;3.00;;
72060;SDS011;59925;52.136;5.420;2023-08-20T05:35:50;6.77;;;3.60;;
72060;SDS011;59925;52.136;5.420;2023-08-20T05:38:17;5.40;;;3.20;;
72060;SDS011;59925;52.136;5.420;2023-08-20T05:40:43;6.20;;;2.90;;
72060;SDS011;59925;52.136;5.420;2023-08-20T05:43:10;4.57;;;2.88;;
72060;SDS011;59925;52.136;5.420;2023-08-20T05:45:36;5.97;;;3.50;;
72060;SDS011;59925;52.136;5.420;2023-08-20T05:48:03;7.47;;;3.77;;
72060;SDS011;59925;52.136;5.420;2023-08-20T05:50:30;14.93;;;6.18;;
72060;SDS011;59925;52.136;5.420;2023-08-20T05:52:56;8.02;;;4.28;;
72060;SDS011;59925;52.136;5.420;2023-08-20T05:55:23;9.15;;;4.05;;
72060;SDS011;59925;52.136;5.420;2023-08-20T05:57:50;8.25;;;4.05;;
72060;SDS011;59925;52.136;5.420;2023-08-20T06:00:16;7.53;;;4.60;;
72060;SDS011;59925;52.136;5.420;2023-08-20T06:02:44;8.65;;;3.97;;
72060;SDS011;59925;52.136;5.420;2023-08-20T06:05:10;7.90;;;4.38;;
72060;SDS011;59925;52.136;5.420;2023-08-20T06:07:37;6.82;;;3.10;;
72060;SDS011;59925;52.136;5.420;2023-08-20T06:10:04;7.53;;;3.75;;
72060;SDS011;59925;52.136;5.420;2023-08-20T06:12:31;10.07;;;4.30;;
72060;SDS011;59925;52.136;5.420;2023-08-20T06:14:58;8.40;;;3.78;;
72060;SDS011;59925;52.136;5.420;2023-08-20T06:17:24;9.77;;;3.95;;
72060;SDS011;59925;52.136;5.420;2023-08-20T06:19:51;9.52;;;3.88;;
72060;SDS011;59925;52.136;5.420;2023-08-20T06:22:17;7.25;;;3.83;;
72060;SDS011;59925;52.136;5.420;2023-08-20T06:24:44;8.80;;;3.10;;
72060;SDS011;59925;52.136;5.420;2023-08-20T06:27:10;5.75;;;2.78;;
72060;SDS011;59925;52.136;5.420;2023-08-20T06:29:37;5.72;;;3.10;;
72060;SDS011;59925;52.136;5.420;2023-08-20T06:32:03;6.32;;;2.70;;
72060;SDS011;59925;52.136;5.420;2023-08-20T06:34:30;6.53;;;2.40;;
72060;SDS011;59925;52.136;5.420;2023-08-20T06:36:57;9.03;;;2.70;;
72060;SDS011;59925;52.136;5.420;2023-08-20T06:39:23;8.95;;;2.50;;
72060;SDS011;59925;52.136;5.420;2023-08-20T06:41:50;7.72;;;2.50;;
72060;SDS011;59925;52.136;5.420;2023-08-20T06:44:16;7.97;;;2.42;;
72060;SDS011;59925;52.136;5.420;2023-08-20T06:46:43;5.53;;;2.15;;
72060;SDS011;59925;52.136;5.420;2023-08-20T06:49:09;7.13;;;2.17;;
72060;SDS011;59925;52.136;5.420;2023-08-20T06:51:36;7.97;;;2.47;;
72060;SDS011;59925;52.136;5.420;2023-08-20T06:54:03;8.35;;;1.90;;
72060;SDS011;59925;52.136;5.420;2023-08-20T06:56:32;7.68;;;2.00;;
72060;SDS011;59925;52.136;5.420;2023-08-20T06:58:59;5.75;;;2.28;;
72060;SDS011;59925;52.136;5.420;2023-08-20T07:01:26;7.97;;;2.10;;
72060;SDS011;59925;52.136;5.420;2023-08-20T07:03:53;9.25;;;2.35;;
72060;SDS011;59925;52.136;5.420;2023-08-20T07:06:20;7.15;;;1.90;;
72060;SDS011;59925;52.136;5.420;2023-08-20T07:08:46;9.82;;;1.67;;
72060;SDS011;59925;52.136;5.420;2023-08-20T07:11:13;8.13;;;1.48;;
72060;SDS011;59925;52.136;5.420;2023-08-20T07:13:39;4.00;;;1.50;;
72060;SDS011;59925;52.136;5.420;2023-08-20T07:16:06;6.03;;;1.45;;
72060;SDS011;59925;52.136;5.420;2023-08-20T07:18:32;7.97;;;2.13;;
72060;SDS011;59925;52.136;5.420;2023-08-20T07:20:59;8.00;;;1.60;;
72060;SDS011;59925;52.136;5.420;2023-08-20T07:23:25;7.32;;;1.42;;
72060;SDS011;59925;52.136;5.420;2023-08-20T07:26:03;6.10;;;1.53;;
72060;SDS011;59925;52.136;5.420;2023-08-20T07:28:31;8.48;;;2.00;;
72060;SDS011;59925;52.136;5.420;2023-08-20T07:31:16;4.97;;;1.40;;
72060;SDS011;59925;52.136;5.420;2023-08-20T07:33:45;7.32;;;1.48;;
72060;SDS011;59925;52.136;5.420;2023-08-20T07:36:15;7.22;;;1.40;;
72060;SDS011;59925;52.136;5.420;2023-08-20T07:38:43;7.60;;;1.53;;
72060;SDS011;59925;52.136;5.420;2023-08-20T07:41:10;5.88;;;1.33;;
72060;SDS011;59925;52.136;5.420;2023-08-20T07:43:38;5.97;;;1.17;;
72060;SDS011;59925;52.136;5.420;2023-08-20T07:46:06;5.47;;;1.27;;
72060;SDS011;59925;52.136;5.420;2023-08-20T07:48:34;7.00;;;1.50;;
72060;SDS011;59925;52.136;5.420;2023-08-20T07:51:01;4.23;;;1.17;;
72060;SDS011;59925;52.136;5.420;2023-08-20T07:53:29;5.85;;;1.10;;
72060;SDS011;59925;52.136;5.420;2023-08-20T07:55:56;5.05;;;1.02;;
72060;SDS011;59925;52.136;5.420;2023-08-20T07:58:23;3.63;;;1.33;;
72060;SDS011;59925;52.136;5.420;2023-08-20T08:00:49;5.78;;;1.20;;
72060;SDS011;59925;52.136;5.420;2023-08-20T08:03:16;2.97;;;0.90;;
72060;SDS011;59925;52.136;5.420;2023-08-20T08:05:49;3.20;;;1.20;;
72060;SDS011;59925;52.136;5.420;2023-08-20T08:08:16;5.65;;;1.45;;
72060;SDS011;59925;52.136;5.420;2023-08-20T08:10:46;5.10;;;1.05;;
72060;SDS011;59925;52.136;5.420;2023-08-20T08:13:14;2.90;;;0.90;;
72060;SDS011;59925;52.136;5.420;2023-08-20T08:15:42;4.20;;;1.00;;
72060;SDS011;59925;52.136;5.420;2023-08-20T08:18:09;4.43;;;1.20;;
72060;SDS011;59925;52.136;5.420;2023-08-20T08:20:35;5.18;;;1.05;;
72060;SDS011;59925;52.136;5.420;2023-08-20T08:23:02;3.30;;;1.20;;
72060;SDS011;59925;52.136;5.420;2023-08-20T08:25:28;3.05;;;1.10;;
72060;SDS011;59925;52.136;5.420;2023-08-20T08:27:55;6.70;;;1.10;;
72060;SDS011;59925;52.136;5.420;2023-08-20T08:30:26;5.68;;;1.52;;
72060;SDS011;59925;52.136;5.420;2023-08-20T08:32:53;5.07;;;1.00;;
72060;SDS011;59925;52.136;5.420;2023-08-20T08:35:20;7.13;;;1.00;;
72060;SDS011;59925;52.136;5.420;2023-08-20T08:37:46;3.80;;;0.77;;
72060;SDS011;59925;52.136;5.420;2023-08-20T08:40:13;4.60;;;0.90;;
72060;SDS011;59925;52.136;5.420;2023-08-20T08:42:40;3.65;;;0.98;;
72060;SDS011;59925;52.136;5.420;2023-08-20T08:45:08;3.17;;;0.82;;
72060;SDS011;59925;52.136;5.420;2023-08-20T08:47:36;4.20;;;1.10;;
72060;SDS011;59925;52.136;5.420;2023-08-20T08:50:03;3.65;;;0.90;;
72060;SDS011;59925;52.136;5.420;2023-08-20T08:52:30;4.23;;;0.80;;
72060;SDS011;59925;52.136;5.420;2023-08-20T08:54:58;3.88;;;0.75;;
72060;SDS011;59925;52.136;5.420;2023-08-20T08:57:24;3.60;;;0.68;;
72060;SDS011;59925;52.136;5.420;2023-08-20T08:59:50;4.53;;;1.15;;
72060;SDS011;59925;52.136;5.420;2023-08-20T09:02:17;4.95;;;1.17;;
72060;SDS011;59925;52.136;5.420;2023-08-20T09:04:45;3.37;;;0.90;;
72060;SDS011;59925;52.136;5.420;2023-08-20T09:07:12;3.60;;;0.93;;
72060;SDS011;59925;52.136;5.420;2023-08-20T09:09:43;5.03;;;0.85;;
72060;SDS011;59925;52.136;5.420;2023-08-20T09:12:12;3.65;;;0.82;;
72060;SDS011;59925;52.136;5.420;2023-08-20T09:14:46;5.05;;;1.05;;
72060;SDS011;59925;52.136;5.420;2023-08-20T09:17:14;2.77;;;0.80;;
72060;SDS011;59925;52.136;5.420;2023-08-20T09:19:42;4.78;;;0.80;;
72060;SDS011;59925;52.136;5.420;2023-08-20T09:22:13;4.57;;;0.85;;
72060;SDS011;59925;52.136;5.420;2023-08-20T09:24:51;2.40;;;0.50;;
72060;SDS011;59925;52.136;5.420;2023-08-20T09:27:19;4.45;;;0.98;;
72060;SDS011;59925;52.136;5.420;2023-08-20T09:29:53;3.97;;;0.90;;
72060;SDS011;59925;52.136;5.420;2023-08-20T09:32:22;5.10;;;1.02;;
72060;SDS011;59925;52.136;5.420;2023-08-20T09:34:51;4.78;;;0.98;;
72060;SDS011;59925;52.136;5.420;2023-08-20T09:37:19;6.63;;;1.40;;
72060;SDS011;59925;52.136;5.420;2023-08-20T09:39:46;2.50;;;0.90;;
72060;SDS011;59925;52.136;5.420;2023-08-20T09:42:14;3.83;;;1.00;;
72060;SDS011;59925;52.136;5.420;2023-08-20T09:44:42;2.60;;;0.93;;
72060;SDS011;59925;52.136;5.420;2023-08-20T09:47:14;2.22;;;0.77;;
72060;SDS011;59925;52.136;5.420;2023-08-20T09:49:43;2.97;;;0.95;;
72060;SDS011;59925;52.136;5.420;2023-08-20T09:52:12;3.33;;;0.90;;
72060;SDS011;59925;52.136;5.420;2023-08-20T09:57:36;3.30;;;0.80;;
72060;SDS011;59925;52.136;5.420;2023-08-20T10:00:04;2.05;;;0.90;;
72060;SDS011;59925;52.136;5.420;2023-08-20T10:02:32;3.38;;;0.90;;
72060;SDS011;59925;52.136;5.420;2023-08-20T10:04:59;1.98;;;0.80;;
72060;SDS011;59925;52.136;5.420;2023-08-20T10:07:28;3.63;;;0.97;;
72060;SDS011;59925;52.136;5.420;2023-08-20T10:10:00;3.45;;;1.23;;
72060;SDS011;59925;52.136;5.420;2023-08-20T10:12:29;2.97;;;0.80;;
72060;SDS011;59925;52.136;5.420;2023-08-20T10:14:56;3.17;;;0.85;;
72060;SDS011;59925;52.136;5.420;2023-08-20T10:17:25;4.05;;;1.00;;
72060;SDS011;59925;52.136;5.420;2023-08-20T10:19:55;4.77;;;1.20;;
72060;SDS011;59925;52.136;5.420;2023-08-20T10:22:36;5.72;;;1.02;;
72060;SDS011;59925;52.136;5.420;2023-08-20T10:25:06;3.67;;;1.00;;
72060;SDS011;59925;52.136;5.420;2023-08-20T10:27:35;3.00;;;0.98;;
72060;SDS011;59925;52.136;5.420;2023-08-20T10:30:25;3.42;;;1.05;;
72060;SDS011;59925;52.136;5.420;2023-08-20T10:32:56;4.27;;;1.17;;
72060;SDS011;59925;52.136;5.420;2023-08-20T10:38:02;4.60;;;1.13;;
72060;SDS011;59925;52.136;5.420;2023-08-20T10:48:49;4.38;;;1.00;;
72060;SDS011;59925;52.136;5.420;2023-08-20T10:51:33;4.05;;;1.00;;
72060;SDS011;59925;52.136;5.420;2023-08-20T10:56:41;5.43;;;1.23;;
72060;SDS011;59925;52.136;5.420;2023-08-20T10:59:21;3.57;;;1.10;;
72060;SDS011;59925;52.136;5.420;2023-08-20T11:01:49;4.55;;;1.20;;
72060;SDS011;59925;52.136;5.420;2023-08-20T11:04:18;2.58;;;1.00;;
72060;SDS011;59925;52.136;5.420;2023-08-20T11:06:46;4.97;;;1.52;;
72060;SDS011;59925;52.136;5.420;2023-08-20T11:09:20;3.45;;;1.05;;
72060;SDS011;59925;52.136;5.420;2023-08-20T11:11:48;2.50;;;1.30;;
72060;SDS011;59925;52.136;5.420;2023-08-20T11:14:14;3.33;;;1.23;;
72060;SDS011;59925;52.136;5.420;2023-08-20T11:16:42;4.13;;;1.40;;
72060;SDS011;59925;52.136;5.420;2023-08-20T11:19:12;4.00;;;1.10;;
72060;SDS011;59925;52.136;5.420;2023-08-20T11:21:42;2.17;;;1.00;;
72060;SDS011;59925;52.136;5.420;2023-08-20T11:24:09;3.23;;;1.03;;
72060;SDS011;59925;52.136;5.420;2023-08-20T11:26:40;3.92;;;1.10;;
72060;SDS011;59925;52.136;5.420;2023-08-20T11:29:08;2.63;;;1.10;;
72060;SDS011;59925;52.136;5.420;2023-08-20T11:31:36;3.67;;;1.17;;
72060;SDS011;59925;52.136;5.420;2023-08-20T11:34:03;2.42;;;1.20;;
72060;SDS011;59925;52.136;5.420;2023-08-20T11:36:30;2.57;;;1.30;;
72060;SDS011;59925;52.136;5.420;2023-08-20T11:38:57;2.58;;;1.10;;
72060;SDS011;59925;52.136;5.420;2023-08-20T11:41:24;4.30;;;1.20;;
72060;SDS011;59925;52.136;5.420;2023-08-20T11:43:52;2.47;;;0.85;;
72060;SDS011;59925;52.136;5.420;2023-08-20T11:46:20;4.55;;;1.05;;
72060;SDS011;59925;52.136;5.420;2023-08-20T11:48:58;2.63;;;1.20;;
72060;SDS011;59925;52.136;5.420;2023-08-20T11:51:38;4.97;;;1.30;;
72060;SDS011;59925;52.136;5.420;2023-08-20T11:54:10;3.92;;;1.20;;
72060;SDS011;59925;52.136;5.420;2023-08-20T11:56:43;3.63;;;1.00;;
72060;SDS011;59925;52.136;5.420;2023-08-20T11:59:14;5.05;;;1.08;;
72060;SDS011;59925;52.136;5.420;2023-08-20T12:01:41;2.87;;;0.97;;
72060;SDS011;59925;52.136;5.420;2023-08-20T12:04:09;4.00;;;1.30;;
72060;SDS011;59925;52.136;5.420;2023-08-20T12:06:36;2.70;;;1.08;;
72060;SDS011;59925;52.136;5.420;2023-08-20T12:09:22;4.82;;;1.25;;
72060;SDS011;59925;52.136;5.420;2023-08-20T12:11:50;2.50;;;1.13;;
72060;SDS011;59925;52.136;5.420;2023-08-20T12:14:18;3.43;;;1.00;;
72060;SDS011;59925;52.136;5.420;2023-08-20T12:16:45;3.65;;;0.95;;
72060;SDS011;59925;52.136;5.420;2023-08-20T12:19:13;2.85;;;0.93;;
72060;SDS011;59925;52.136;5.420;2023-08-20T12:21:42;3.10;;;1.10;;
72060;SDS011;59925;52.136;5.420;2023-08-20T12:24:12;3.05;;;1.00;;
72060;SDS011;59925;52.136;5.420;2023-08-20T12:26:39;2.80;;;1.00;;
72060;SDS011;59925;52.136;5.420;2023-08-20T12:29:06;4.70;;;1.10;;
72060;SDS011;59925;52.136;5.420;2023-08-20T12:31:34;3.55;;;1.27;;
72060;SDS011;59925;52.136;5.420;2023-08-20T12:34:01;4.55;;;1.33;;
72060;SDS011;59925;52.136;5.420;2023-08-20T12:36:28;5.93;;;1.25;;
72060;SDS011;59925;52.136;5.420;2023-08-20T12:38:55;4.37;;;1.57;;
72060;SDS011;59925;52.136;5.420;2023-08-20T12:41:22;3.42;;;1.20;;
72060;SDS011;59925;52.136;5.420;2023-08-20T12:43:48;2.80;;;1.48;;
72060;SDS011;59925;52.136;5.420;2023-08-20T12:46:16;3.33;;;1.13;;
72060;SDS011;59925;52.136;5.420;2023-08-20T12:48:43;3.45;;;1.27;;
72060;SDS011;59925;52.136;5.420;2023-08-20T12:51:09;3.90;;;1.00;;
72060;SDS011;59925;52.136;5.420;2023-08-20T12:53:39;2.65;;;1.10;;
72060;SDS011;59925;52.136;5.420;2023-08-20T12:56:06;2.95;;;0.98;;
72060;SDS011;59925;52.136;5.420;2023-08-20T12:58:32;2.83;;;1.23;;
72060;SDS011;59925;52.136;5.420;2023-08-20T13:00:59;4.45;;;1.30;;
72060;SDS011;59925;52.136;5.420;2023-08-20T13:03:25;4.13;;;1.40;;
72060;SDS011;59925;52.136;5.420;2023-08-20T13:05:54;2.85;;;1.15;;
72060;SDS011;59925;52.136;5.420;2023-08-20T13:08:25;2.45;;;1.23;;
72060;SDS011;59925;52.136;5.420;2023-08-20T13:10:55;5.07;;;1.42;;
72060;SDS011;59925;52.136;5.420;2023-08-20T13:13:24;3.55;;;1.23;;
72060;SDS011;59925;52.136;5.420;2023-08-20T13:15:52;3.90;;;1.17;;
72060;SDS011;59925;52.136;5.420;2023-08-20T13:18:19;2.42;;;1.02;;
72060;SDS011;59925;52.136;5.420;2023-08-20T13:20:54;4.35;;;1.10;;
72060;SDS011;59925;52.136;5.420;2023-08-20T13:23:21;4.20;;;1.05;;
72060;SDS011;59925;52.136;5.420;2023-08-20T13:25:48;3.88;;;1.17;;
72060;SDS011;59925;52.136;5.420;2023-08-20T13:28:14;2.63;;;1.23;;
72060;SDS011;59925;52.136;5.420;2023-08-20T13:30:41;4.25;;;1.10;;
72060;SDS011;59925;52.136;5.420;2023-08-20T13:33:07;4.50;;;1.25;;
72060;SDS011;59925;52.136;5.420;2023-08-20T13:35:34;4.40;;;1.40;;
72060;SDS011;59925;52.136;5.420;2023-08-20T13:38:00;3.55;;;1.00;;
72060;SDS011;59925;52.136;5.420;2023-08-20T13:40:27;3.53;;;1.10;;
72060;SDS011;59925;52.136;5.420;2023-08-20T13:42:55;2.47;;;1.05;;
72060;SDS011;59925;52.136;5.420;2023-08-20T13:45:21;3.80;;;1.35;;
72060;SDS011;59925;52.136;5.420;2023-08-20T13:47:48;2.30;;;0.90;;
72060;SDS011;59925;52.136;5.420;2023-08-20T13:50:14;3.67;;;1.13;;
72060;SDS011;59925;52.136;5.420;2023-08-20T13:52:42;3.27;;;0.90;;
72060;SDS011;59925;52.136;5.420;2023-08-20T13:55:09;4.32;;;1.10;;
72060;SDS011;59925;52.136;5.420;2023-08-20T13:57:35;4.10;;;1.30;;
72060;SDS011;59925;52.136;5.420;2023-08-20T14:00:02;3.08;;;1.15;;
72060;SDS011;59925;52.136;5.420;2023-08-20T14:02:34;2.88;;;1.10;;
72060;SDS011;59925;52.136;5.420;2023-08-20T14:05:02;3.20;;;1.00;;
72060;SDS011;59925;52.136;5.420;2023-08-20T14:07:30;2.00;;;0.90;;
72060;SDS011;59925;52.136;5.420;2023-08-20T14:09:58;3.20;;;1.10;;
72060;SDS011;59925;52.136;5.420;2023-08-20T14:12:25;4.75;;;1.10;;
72060;SDS011;59925;52.136;5.420;2023-08-20T14:14:52;4.63;;;1.13;;
72060;SDS011;59925;52.136;5.420;2023-08-20T14:17:18;2.47;;;1.30;;
72060;SDS011;59925;52.136;5.420;2023-08-20T14:19:45;3.63;;;1.38;;
72060;SDS011;59925;52.136;5.420;2023-08-20T14:22:11;5.57;;;1.40;;
72060;SDS011;59925;52.136;5.420;2023-08-20T14:24:38;2.30;;;1.10;;
72060;SDS011;59925;52.136;5.420;2023-08-20T14:27:04;3.75;;;1.27;;
72060;SDS011;59925;52.136;5.420;2023-08-20T14:29:34;4.60;;;1.00;;
72060;SDS011;59925;52.136;5.420;2023-08-20T14:32:01;2.85;;;1.10;;
72060;SDS011;59925;52.136;5.420;2023-08-20T14:34:28;3.90;;;1.30;;
72060;SDS011;59925;52.136;5.420;2023-08-20T14:36:55;4.68;;;1.48;;
72060;SDS011;59925;52.136;5.420;2023-08-20T14:39:21;3.28;;;1.20;;
72060;SDS011;59925;52.136;5.420;2023-08-20T14:41:48;21.13;;;16.10;;
72060;SDS011;59925;52.136;5.420;2023-08-20T14:44:15;8.13;;;5.32;;
72060;SDS011;59925;52.136;5.420;2023-08-20T14:46:41;7.20;;;5.53;;
72060;SDS011;59925;52.136;5.420;2023-08-20T14:49:08;11.68;;;10.68;;
72060;SDS011;59925;52.136;5.420;2023-08-20T14:51:34;2.60;;;2.38;;
72060;SDS011;59925;52.136;5.420;2023-08-20T14:54:01;24.43;;;22.40;;
72060;SDS011;59925;52.136;5.420;2023-08-20T14:56:29;21.08;;;19.40;;
72060;SDS011;59925;52.136;5.420;2023-08-20T14:58:56;4.90;;;3.25;;
72060;SDS011;59925;52.136;5.420;2023-08-20T15:01:22;4.45;;;1.60;;
72060;SDS011;59925;52.136;5.420;2023-08-20T15:03:49;2.72;;;1.23;;
72060;SDS011;59925;52.136;5.420;2023-08-20T15:06:15;2.73;;;1.07;;
72060;SDS011;59925;52.136;5.420;2023-08-20T15:08:41;5.85;;;1.83;;
72060;SDS011;59925;52.136;5.420;2023-08-20T15:11:08;2.13;;;0.95;;
72060;SDS011;59925;52.136;5.420;2023-08-20T15:13:35;4.82;;;1.13;;